createdAt,value
2022-09-16T00:00:57.973Z,12.25
2022-09-16T00:03:25.470Z,12.29
2022-09-16T00:05:53.888Z,12.40
2022-09-16T00:08:22.211Z,12.30
2022-09-16T00:10:49.350Z,12.27
2022-09-16T00:13:16.581Z,12.35
2022-09-16T00:15:51.345Z,12.30
2022-09-16T00:18:20.483Z,12.35
2022-09-16T00:20:54.760Z,12.23
2022-09-16T00:23:21.798Z,12.24
2022-09-16T00:25:56.150Z,12.13
2022-09-16T00:28:24.068Z,12.14
2022-09-16T00:30:51.388Z,12.03
2022-09-16T00:33:20.090Z,12.01
2022-09-16T00:35:47.705Z,12.02
2022-09-16T00:38:15.071Z,12.05
2022-09-16T00:40:48.004Z,12.05
2022-09-16T00:43:19.807Z,12.07
2022-09-16T00:46:00.033Z,11.94
2022-09-16T00:48:30.526Z,11.89
2022-09-16T00:51:07.703Z,11.95
2022-09-16T00:53:52.039Z,11.74
2022-09-16T00:56:23.864Z,11.90
2022-09-16T00:59:20.649Z,11.92
2022-09-16T01:01:48.241Z,11.90
2022-09-16T01:04:26.377Z,11.77
2022-09-16T01:06:54.071Z,11.67
2022-09-16T01:09:25.643Z,11.68
2022-09-16T01:11:52.622Z,11.54
2022-09-16T01:14:40.832Z,11.68
2022-09-16T01:17:41.279Z,11.72
2022-09-16T01:20:29.834Z,11.61
2022-09-16T01:23:59.859Z,11.56
2022-09-16T01:27:29.643Z,11.52
2022-09-16T01:30:44.533Z,11.65
2022-09-16T01:33:44.985Z,11.67
2022-09-16T01:36:37.172Z,11.45
2022-09-16T01:40:00.013Z,11.52
2022-09-16T01:43:06.441Z,11.50
2022-09-16T01:45:50.317Z,11.58
2022-09-16T01:48:43.715Z,11.67
2022-09-16T01:51:31.712Z,11.42
2022-09-16T01:54:20.688Z,11.49
2022-09-16T01:57:03.401Z,11.39
2022-09-16T01:59:46.345Z,11.40
2022-09-16T02:02:53.335Z,11.47
2022-09-16T02:05:37.245Z,11.40
2022-09-16T02:08:15.051Z,11.43
2022-09-16T02:10:49.905Z,11.18
2022-09-16T02:13:26.370Z,11.32
2022-09-16T02:15:58.381Z,11.34
2022-09-16T02:18:35.195Z,11.43
2022-09-16T02:21:08.402Z,11.41
2022-09-16T02:23:45.384Z,11.34
2022-09-16T02:26:21.734Z,11.35
2022-09-16T02:28:52.073Z,11.25
2022-09-16T02:31:26.377Z,11.31
2022-09-16T02:34:34.411Z,11.34
2022-09-16T02:37:11.827Z,11.28
2022-09-16T02:39:44.467Z,11.32
2022-09-16T02:42:11.675Z,11.28
2022-09-16T02:44:38.832Z,11.37
2022-09-16T02:47:45.216Z,11.41
2022-09-16T02:50:40.125Z,11.22
2022-09-16T02:54:04.905Z,11.21
2022-09-16T02:56:39.277Z,11.17
2022-09-16T02:59:11.405Z,11.17
2022-09-16T03:01:43.610Z,11.22
2022-09-16T03:04:16.982Z,11.21
2022-09-16T03:06:44.014Z,11.29
2022-09-16T03:09:13.839Z,10.98
2022-09-16T03:12:17.802Z,11.00
2022-09-16T03:15:27.224Z,11.09
2022-09-16T03:18:21.198Z,11.00
2022-09-16T03:21:46.496Z,11.26
2022-09-16T03:24:30.032Z,10.99
2022-09-16T03:27:10.153Z,11.20
2022-09-16T03:30:18.907Z,11.21
2022-09-16T03:33:09.710Z,11.21
2022-09-16T03:35:50.312Z,11.40
2022-09-16T03:38:19.329Z,11.44
2022-09-16T03:40:48.378Z,11.34
2022-09-16T03:43:17.513Z,11.33
2022-09-16T03:45:45.211Z,11.37
2022-09-16T03:48:16.850Z,11.39
2022-09-16T03:50:47.189Z,11.41
2022-09-16T03:53:14.146Z,11.23
2022-09-16T03:55:41.111Z,11.33
2022-09-16T03:58:08.041Z,11.16
2022-09-16T04:00:35.239Z,11.16
2022-09-16T04:03:02.242Z,11.30
2022-09-16T04:05:29.433Z,11.28
2022-09-16T04:07:56.445Z,11.19
2022-09-16T04:10:23.385Z,11.36
2022-09-16T04:12:50.386Z,11.43
2022-09-16T04:15:17.370Z,11.54
2022-09-16T04:17:44.300Z,11.52
2022-09-16T04:20:11.505Z,11.49
2022-09-16T04:22:38.507Z,11.50
2022-09-16T04:25:06.326Z,11.58
2022-09-16T04:27:33.522Z,11.32
2022-09-16T04:30:00.582Z,11.48
2022-09-16T04:32:27.518Z,11.37
2022-09-16T04:34:55.348Z,11.29
2022-09-16T04:37:22.337Z,11.29
2022-09-16T04:39:49.340Z,11.20
2022-09-16T04:42:16.324Z,11.37
2022-09-16T04:44:44.729Z,11.30
2022-09-16T04:47:11.831Z,11.26
2022-09-16T04:49:38.761Z,11.36
2022-09-16T04:52:05.867Z,11.43
2022-09-16T04:54:32.924Z,11.30
2022-09-16T04:57:01.137Z,11.39
2022-09-16T04:59:28.094Z,11.47
2022-09-16T05:01:55.217Z,11.39
2022-09-16T05:04:22.932Z,11.40
2022-09-16T05:06:52.065Z,11.46
2022-09-16T05:09:22.170Z,11.42
2022-09-16T05:11:49.668Z,11.61
2022-09-16T05:14:18.820Z,11.48
2022-09-16T05:16:46.437Z,11.58
2022-09-16T05:19:15.031Z,11.69
2022-09-16T05:21:43.160Z,11.61
2022-09-16T05:24:14.954Z,11.62
2022-09-16T05:26:43.331Z,11.62
2022-09-16T05:29:17.424Z,11.70
2022-09-16T05:31:47.454Z,11.61
2022-09-16T05:34:22.299Z,11.71
2022-09-16T05:36:50.711Z,11.75
2022-09-16T05:39:25.862Z,11.90
2022-09-16T05:41:59.769Z,11.71
2022-09-16T05:44:29.051Z,11.82
2022-09-16T05:46:56.414Z,11.58
2022-09-16T05:49:24.185Z,11.78
2022-09-16T05:51:52.138Z,11.84
2022-09-16T05:54:20.317Z,11.80
2022-09-16T05:56:48.326Z,11.94
2022-09-16T05:59:17.590Z,11.79
2022-09-16T06:01:45.465Z,11.94
2022-09-16T06:04:15.545Z,12.11
2022-09-16T06:06:46.134Z,12.24
2022-09-16T06:09:24.125Z,12.16
2022-09-16T06:11:59.381Z,12.06
2022-09-16T06:14:28.870Z,11.89
2022-09-16T06:16:56.491Z,12.14
2022-09-16T06:19:23.796Z,12.33
2022-09-16T06:21:50.870Z,12.40
2022-09-16T06:24:19.722Z,12.18
2022-09-16T06:26:49.425Z,12.11
2022-09-16T06:29:17.686Z,12.53
2022-09-16T06:31:44.862Z,12.35
2022-09-16T06:34:18.498Z,12.04
2022-09-16T06:36:46.955Z,12.44
2022-09-16T06:39:18.113Z,12.54
2022-09-16T06:41:45.931Z,12.52
2022-09-16T06:44:13.029Z,12.52
2022-09-16T06:46:40.182Z,12.69
2022-09-16T06:49:07.296Z,12.28
2022-09-16T06:51:36.529Z,12.09
2022-09-16T06:54:07.473Z,12.82
2022-09-16T06:56:37.626Z,13.00
2022-09-16T06:59:05.507Z,13.13
2022-09-16T07:01:33.933Z,13.39
2022-09-16T07:04:13.540Z,13.61
2022-09-16T07:09:28.350Z,13.67
2022-09-16T07:11:55.549Z,13.68
2022-09-16T07:14:23.189Z,13.70
2022-09-16T07:16:50.186Z,13.71
2022-09-16T07:19:17.229Z,13.70
2022-09-16T07:21:44.974Z,13.65
2022-09-16T07:24:14.214Z,13.35
2022-09-16T07:26:43.320Z,13.57
2022-09-16T07:29:18.116Z,12.92
2022-09-16T07:31:45.218Z,12.90
2022-09-16T07:34:13.903Z,13.48
2022-09-16T07:36:47.020Z,14.01
2022-09-16T07:39:17.955Z,13.74
2022-09-16T07:41:48.656Z,14.05
2022-09-16T07:44:19.294Z,14.08
2022-09-16T07:46:46.506Z,14.34
2022-09-16T07:49:14.997Z,14.41
2022-09-16T07:51:43.032Z,14.46
2022-09-16T07:54:16.644Z,14.46
2022-09-16T07:56:44.940Z,14.11
2022-09-16T07:59:19.305Z,14.28
2022-09-16T08:01:49.572Z,14.37
2022-09-16T08:04:19.431Z,14.53
2022-09-16T08:06:46.670Z,14.52
2022-09-16T08:09:37.912Z,14.84
2022-09-16T08:12:07.996Z,14.88
2022-09-16T08:14:35.191Z,15.02
2022-09-16T08:17:03.992Z,15.30
2022-09-16T08:19:30.955Z,15.27
2022-09-16T08:21:58.366Z,14.91
2022-09-16T08:24:25.436Z,14.64
2022-09-16T08:26:52.488Z,14.98
2022-09-16T08:29:19.548Z,14.82
2022-09-16T08:31:46.578Z,14.79
2022-09-16T08:34:13.783Z,15.37
2022-09-16T08:36:40.872Z,15.39
2022-09-16T08:39:09.202Z,15.24
2022-09-16T08:42:25.538Z,15.00
2022-09-16T08:45:40.057Z,15.23
2022-09-16T08:48:31.925Z,15.36
2022-09-16T08:51:02.272Z,15.18
2022-09-16T08:54:01.437Z,15.80
2022-09-16T08:56:35.453Z,15.33
2022-09-16T08:59:10.259Z,15.51
2022-09-16T09:02:00.473Z,15.52
2022-09-16T09:04:31.374Z,15.32
2022-09-16T09:07:26.827Z,16.13
2022-09-16T09:10:49.135Z,15.93
2022-09-16T09:14:03.879Z,15.91
2022-09-16T09:16:49.068Z,15.92
2022-09-16T09:20:06.599Z,15.51
2022-09-16T09:23:29.252Z,15.33
2022-09-16T09:26:08.056Z,15.24
2022-09-16T09:29:46.513Z,15.64
2022-09-16T09:32:49.099Z,16.12
2022-09-16T09:35:33.112Z,16.60
2022-09-16T09:38:45.264Z,16.67
2022-09-16T09:41:47.880Z,16.12
2022-09-16T09:44:51.819Z,15.96
2022-09-16T09:48:13.475Z,16.74
2022-09-16T09:50:49.819Z,17.34
2022-09-16T09:53:41.709Z,16.73
2022-09-16T09:56:25.181Z,16.55
2022-09-16T09:59:22.656Z,16.90
2022-09-16T10:02:01.057Z,16.41
2022-09-16T10:04:38.308Z,17.17
2022-09-16T10:07:07.418Z,17.31
2022-09-16T10:09:37.015Z,17.71
2022-09-16T10:12:05.371Z,17.45
2022-09-16T10:14:38.062Z,17.30
2022-09-16T10:17:16.836Z,16.62
2022-09-16T10:20:07.163Z,16.75
2022-09-16T10:22:36.182Z,16.54
2022-09-16T10:25:25.225Z,16.29
2022-09-16T10:28:02.894Z,16.77
2022-09-16T10:30:42.175Z,16.82
2022-09-16T10:33:23.619Z,16.94
2022-09-16T10:36:03.975Z,18.29
2022-09-16T10:38:51.701Z,18.52
2022-09-16T10:41:26.813Z,18.14
2022-09-16T10:44:41.267Z,17.18
2022-09-16T10:47:28.952Z,17.78
2022-09-16T10:50:05.028Z,17.54
2022-09-16T10:52:44.688Z,17.83
2022-09-16T10:55:36.569Z,18.87
2022-09-16T10:58:16.283Z,18.63
2022-09-16T11:01:56.396Z,17.49
2022-09-16T11:04:59.821Z,18.04
2022-09-16T11:07:47.388Z,18.40
2022-09-16T11:10:48.713Z,19.09
2022-09-16T11:14:02.144Z,18.78
2022-09-16T11:17:05.777Z,19.60
2022-09-16T11:20:17.603Z,19.90
2022-09-16T11:23:29.155Z,19.29
2022-09-16T11:26:23.356Z,18.92
2022-09-16T11:29:40.555Z,19.52
2022-09-16T11:32:54.775Z,19.70
2022-09-16T11:35:52.661Z,18.99
2022-09-16T11:39:04.016Z,20.38
2022-09-16T11:42:04.611Z,20.02
2022-09-16T11:44:49.484Z,20.08
2022-09-16T11:47:50.056Z,20.35
2022-09-16T11:50:44.139Z,19.50
2022-09-16T11:53:59.242Z,18.94
2022-09-16T11:56:48.256Z,19.85
2022-09-16T11:59:57.432Z,20.23
2022-09-16T12:03:10.753Z,19.63
2022-09-16T12:05:53.558Z,19.21
2022-09-16T12:08:50.521Z,20.43
2022-09-16T12:11:24.661Z,20.79
2022-09-16T12:14:05.960Z,20.54
2022-09-16T12:16:52.037Z,20.41
2022-09-16T12:19:35.609Z,19.42
2022-09-16T12:22:16.150Z,19.86
2022-09-16T12:25:03.493Z,19.93
2022-09-16T12:27:50.052Z,19.06
2022-09-16T12:30:27.327Z,18.89
2022-09-16T12:33:29.022Z,19.51
2022-09-16T12:36:20.422Z,20.26
2022-09-16T12:38:53.475Z,19.45
2022-09-16T12:41:51.771Z,18.80
2022-09-16T12:44:35.634Z,18.68
2022-09-16T12:47:35.569Z,18.21
2022-09-16T12:50:49.784Z,19.08
2022-09-16T12:53:52.728Z,18.64
2022-09-16T12:56:42.828Z,18.83
2022-09-16T12:59:24.377Z,19.17
2022-09-16T13:02:00.726Z,19.51
2022-09-16T13:04:45.225Z,19.24
2022-09-16T13:07:35.496Z,19.63
2022-09-16T13:10:26.419Z,18.57
2022-09-16T13:13:05.125Z,18.72
2022-09-16T13:15:40.000Z,18.27
2022-09-16T13:18:16.670Z,18.79
2022-09-16T13:21:05.564Z,19.74
2022-09-16T13:23:40.227Z,20.39
2022-09-16T13:26:09.817Z,20.79
2022-09-16T13:28:44.139Z,19.64
2022-09-16T13:31:14.336Z,18.82
2022-09-16T13:34:15.449Z,19.61
2022-09-16T13:36:42.532Z,19.81
2022-09-16T13:39:30.858Z,20.35
2022-09-16T13:42:09.474Z,20.38
2022-09-16T13:44:42.321Z,19.69
2022-09-16T13:47:12.218Z,19.77
2022-09-16T13:49:52.772Z,20.08
2022-09-16T13:52:28.808Z,20.85
2022-09-16T13:55:10.576Z,20.48
2022-09-16T13:58:29.439Z,20.09
2022-09-16T14:01:42.216Z,20.77
2022-09-16T14:05:03.919Z,20.19
2022-09-16T14:08:25.741Z,20.35
2022-09-16T14:11:22.446Z,19.25
2022-09-16T14:14:46.189Z,19.07
2022-09-16T14:17:51.358Z,18.55
2022-09-16T14:20:24.530Z,18.88
2022-09-16T14:23:26.481Z,19.14
2022-09-16T14:25:55.492Z,19.75
2022-09-16T14:28:27.883Z,19.76
2022-09-16T14:31:01.184Z,19.91
2022-09-16T14:33:46.054Z,20.15
2022-09-16T14:36:37.705Z,20.44
2022-09-16T14:39:07.557Z,20.40
2022-09-16T14:41:56.002Z,20.51
2022-09-16T14:44:51.344Z,20.14
2022-09-16T14:47:51.346Z,21.01
2022-09-16T14:50:38.848Z,21.41
2022-09-16T14:53:35.367Z,20.07
2022-09-16T14:56:04.825Z,19.82
2022-09-16T14:58:34.040Z,18.82
2022-09-16T15:01:18.225Z,18.34
2022-09-16T15:04:14.626Z,18.07
2022-09-16T15:06:52.837Z,18.16
2022-09-16T15:10:04.605Z,18.54
2022-09-16T15:13:02.723Z,18.63
2022-09-16T15:15:33.263Z,18.66
2022-09-16T15:18:24.335Z,18.25
2022-09-16T15:21:09.540Z,18.31
2022-09-16T15:23:42.979Z,18.51
2022-09-16T15:26:38.552Z,18.20
2022-09-16T15:29:20.670Z,18.06
2022-09-16T15:31:48.375Z,18.19
2022-09-16T15:34:20.824Z,18.18
2022-09-16T15:36:54.998Z,18.10
2022-09-16T15:39:38.363Z,17.95
2022-09-16T15:42:21.051Z,17.84
2022-09-16T15:44:57.877Z,17.95
2022-09-16T15:47:39.942Z,18.03
2022-09-16T15:50:20.019Z,18.23
2022-09-16T15:53:29.491Z,18.45
2022-09-16T15:56:58.874Z,18.26
2022-09-16T15:59:36.641Z,18.09
2022-09-16T16:02:24.887Z,17.93
2022-09-16T16:04:52.496Z,17.63
2022-09-16T16:07:54.656Z,17.58
2022-09-16T16:10:35.174Z,17.36
2022-09-16T16:13:04.558Z,17.12
2022-09-16T16:15:36.051Z,17.32
2022-09-16T16:18:10.649Z,17.55
2022-09-16T16:20:38.898Z,17.39
2022-09-16T16:23:06.244Z,17.24
2022-09-16T16:25:34.026Z,17.18
2022-09-16T16:28:01.206Z,16.72
2022-09-16T16:30:28.146Z,16.81
2022-09-16T16:32:55.104Z,16.51
2022-09-16T16:35:22.095Z,16.54
2022-09-16T16:37:49.119Z,16.31
2022-09-16T16:40:16.294Z,16.67
2022-09-16T16:42:44.503Z,16.64
2022-09-16T16:45:13.590Z,16.58
2022-09-16T16:47:41.592Z,16.27
2022-09-16T16:50:09.546Z,16.10
2022-09-16T16:52:36.869Z,16.02
2022-09-16T16:55:04.831Z,16.07
2022-09-16T16:57:32.196Z,16.18
2022-09-16T16:59:59.194Z,16.06
2022-09-16T17:02:26.322Z,16.05
2022-09-16T17:04:53.339Z,16.20
2022-09-16T17:07:28.206Z,16.40
2022-09-16T17:09:58.979Z,16.08
2022-09-16T17:12:26.867Z,16.23
2022-09-16T17:14:53.995Z,15.80
2022-09-16T17:17:20.950Z,16.04
2022-09-16T17:19:48.140Z,15.75
2022-09-16T17:22:15.892Z,15.94
2022-09-16T17:24:42.853Z,15.85
2022-09-16T17:27:09.896Z,15.82
2022-09-16T17:29:36.921Z,15.71
2022-09-16T17:32:04.096Z,15.77
2022-09-16T17:34:31.301Z,15.66
2022-09-16T17:36:58.543Z,15.51
2022-09-16T17:39:26.041Z,15.67
2022-09-16T17:41:56.492Z,15.50
2022-09-16T17:44:23.558Z,15.41
2022-09-16T17:46:50.687Z,15.33
2022-09-16T17:49:24.243Z,15.36
2022-09-16T17:51:53.496Z,15.31
2022-09-16T17:54:21.832Z,15.17
2022-09-16T17:56:48.949Z,15.10
2022-09-16T17:59:18.829Z,15.10
2022-09-16T18:01:46.329Z,15.02
2022-09-16T18:04:13.679Z,15.05
2022-09-16T18:06:44.924Z,15.00
2022-09-16T18:09:13.325Z,15.16
2022-09-16T18:11:40.618Z,15.06
2022-09-16T18:14:12.039Z,15.00
2022-09-16T18:16:39.914Z,14.95
2022-09-16T18:19:10.257Z,15.02
2022-09-16T18:21:40.787Z,15.02
2022-09-16T18:24:12.935Z,15.16
2022-09-16T18:26:42.166Z,15.31
2022-09-16T18:29:19.003Z,15.09
2022-09-16T18:31:48.801Z,15.13
2022-09-16T18:34:17.655Z,15.13
2022-09-16T18:36:45.303Z,15.10
2022-09-16T18:39:17.105Z,15.09
2022-09-16T18:41:45.769Z,14.98
2022-09-16T18:44:23.911Z,14.93
2022-09-16T18:46:52.684Z,15.07
2022-09-16T18:49:22.170Z,15.03
2022-09-16T18:51:52.426Z,14.91
2022-09-16T18:54:33.365Z,14.89
2022-09-16T18:57:01.963Z,14.88
2022-09-16T18:59:32.818Z,14.73
2022-09-16T19:02:03.590Z,14.87
2022-09-16T19:04:37.362Z,14.53
2022-09-16T19:07:08.495Z,14.75
2022-09-16T19:09:40.859Z,14.96
2022-09-16T19:12:13.012Z,14.77
2022-09-16T19:14:40.975Z,14.99
2022-09-16T19:17:08.526Z,14.74
2022-09-16T19:19:35.642Z,14.61
2022-09-16T19:22:05.641Z,14.50
2022-09-16T19:24:33.750Z,14.61
2022-09-16T19:27:00.677Z,14.63
2022-09-16T19:29:27.709Z,14.22
2022-09-16T19:31:54.679Z,14.23
2022-09-16T19:34:22.518Z,13.90
2022-09-16T19:36:50.206Z,13.98
2022-09-16T19:39:17.659Z,13.97
2022-09-16T19:41:47.145Z,13.38
2022-09-16T19:44:20.505Z,13.71
2022-09-16T19:46:49.105Z,13.34
2022-09-16T19:49:21.036Z,13.40
2022-09-16T19:51:50.045Z,13.55
2022-09-16T19:54:18.086Z,13.57
2022-09-16T19:56:50.321Z,13.63
2022-09-16T19:59:19.024Z,13.43
2022-09-16T20:01:46.635Z,13.46
2022-09-16T20:04:14.837Z,13.28
2022-09-16T20:06:42.715Z,13.31
2022-09-16T20:09:12.936Z,13.25
2022-09-16T20:11:45.386Z,13.18
2022-09-16T20:14:23.783Z,13.20
2022-09-16T20:16:51.907Z,13.14
2022-09-16T20:19:24.851Z,13.12
2022-09-16T20:21:51.973Z,13.16
2022-09-16T20:24:23.545Z,13.24
2022-09-16T20:26:57.349Z,13.04
2022-09-16T20:29:33.648Z,12.93
2022-09-16T20:32:00.972Z,13.12
2022-09-16T20:34:28.317Z,12.96
2022-09-16T20:36:55.276Z,12.91
2022-09-16T20:39:24.539Z,12.95
2022-09-16T20:41:52.735Z,12.59
2022-09-16T20:44:20.002Z,12.88
2022-09-16T20:46:48.994Z,12.72
2022-09-16T20:49:19.814Z,12.62
2022-09-16T20:51:50.268Z,12.62
2022-09-16T20:54:20.675Z,12.59
2022-09-16T20:56:49.378Z,12.45
2022-09-16T20:59:20.257Z,12.19
2022-09-16T21:01:48.545Z,12.32
2022-09-16T21:04:20.263Z,12.41
2022-09-16T21:06:47.366Z,12.44
2022-09-16T21:09:16.413Z,12.44
2022-09-16T21:11:52.862Z,12.35
2022-09-16T21:14:22.181Z,12.10
2022-09-16T21:16:49.414Z,12.18
2022-09-16T21:19:17.899Z,12.23
2022-09-16T21:21:48.632Z,12.25
2022-09-16T21:24:16.322Z,12.07
2022-09-16T21:26:44.877Z,11.90
2022-09-16T21:29:21.269Z,11.96
2022-09-16T21:31:51.918Z,12.02
2022-09-16T21:34:24.750Z,12.03
2022-09-16T21:36:52.695Z,11.92
2022-09-16T21:39:21.074Z,11.92
2022-09-16T21:41:48.716Z,11.88
2022-09-16T21:44:16.481Z,12.00
2022-09-16T21:46:46.264Z,11.99
2022-09-16T21:49:29.114Z,11.88
2022-09-16T21:51:58.739Z,11.93
2022-09-16T21:54:26.682Z,11.90
2022-09-16T21:56:56.063Z,11.94
2022-09-16T21:59:25.918Z,12.02
2022-09-16T22:02:05.403Z,11.99
2022-09-16T22:04:32.541Z,11.93
2022-09-16T22:06:59.590Z,11.64
2022-09-16T22:09:26.544Z,11.95
2022-09-16T22:11:59.188Z,11.88
2022-09-16T22:14:27.017Z,11.79
2022-09-16T22:16:53.967Z,11.87
2022-09-16T22:19:23.942Z,12.21
2022-09-16T22:21:51.646Z,12.14
2022-09-16T22:24:22.254Z,12.03
2022-09-16T22:26:56.428Z,12.05
2022-09-16T22:29:24.615Z,11.72
2022-09-16T22:31:51.821Z,11.69
2022-09-16T22:34:19.007Z,11.71
2022-09-16T22:36:46.736Z,11.76
2022-09-16T22:39:19.475Z,11.89
2022-09-16T22:41:47.850Z,12.04
2022-09-16T22:44:15.262Z,11.83
2022-09-16T22:46:49.686Z,12.08
2022-09-16T22:49:17.007Z,12.02
2022-09-16T22:51:49.534Z,11.98
2022-09-16T22:54:16.791Z,11.83
2022-09-16T22:56:44.740Z,11.91
2022-09-16T22:59:21.120Z,12.05
2022-09-16T23:01:48.820Z,12.13
2022-09-16T23:04:16.449Z,11.95
2022-09-16T23:06:43.627Z,12.05
2022-09-16T23:09:13.959Z,12.02
2022-09-16T23:11:43.752Z,12.08
2022-09-16T23:14:21.669Z,12.19
2022-09-16T23:16:48.996Z,12.06
2022-09-16T23:19:15.931Z,12.23
2022-09-16T23:21:43.126Z,12.15
2022-09-16T23:24:21.904Z,12.02
2022-09-16T23:26:49.668Z,12.17
2022-09-16T23:29:18.307Z,12.33
2022-09-16T23:31:45.593Z,12.11
2022-09-16T23:34:21.663Z,12.03
2022-09-16T23:37:04.646Z,12.12
2022-09-16T23:39:31.729Z,11.97
2022-09-16T23:42:01.439Z,12.28
2022-09-16T23:44:39.936Z,12.25
2022-09-16T23:47:09.974Z,12.37
2022-09-16T23:49:40.693Z,12.15
2022-09-16T23:52:08.350Z,12.32
2022-09-16T23:54:36.194Z,12.44
2022-09-16T23:57:03.219Z,12.48
2022-09-16T23:59:30.422Z,12.36
